sensor_id;sensor_type;location;lat;lon;timestamp;pressure;altitude;pressure_sealevel;temperature;humidity
6565;BME280;3316;44.118;27.258;2023-05-02T00:01:49;101729.34;;;13.58;78.40
6565;BME280;3316;44.118;27.258;2023-05-02T00:04:15;101727.66;;;13.50;78.49
6565;BME280;3316;44.118;27.258;2023-05-02T00:06:40;101725.00;;;13.47;78.33
6565;BME280;3316;44.118;27.258;2023-05-02T00:09:06;101733.78;;;13.50;79.18
6565;BME280;3316;44.118;27.258;2023-05-02T00:11:32;101726.84;;;13.34;80.11
6565;BME280;3316;44.118;27.258;2023-05-02T00:13:58;101739.16;;;13.30;81.32
6565;BME280;3316;44.118;27.258;2023-05-02T00:16:23;101738.31;;;13.19;81.34
6565;BME280;3316;44.118;27.258;2023-05-02T00:18:48;101740.06;;;13.23;84.15
6565;BME280;3316;44.118;27.258;2023-05-02T00:21:14;101728.66;;;13.05;85.61
6565;BME280;3316;44.118;27.258;2023-05-02T00:23:39;101741.88;;;13.00;86.78
6565;BME280;3316;44.118;27.258;2023-05-02T00:26:08;101738.41;;;12.80;87.75
6565;BME280;3316;44.118;27.258;2023-05-02T00:28:34;101756.00;;;12.80;89.53
6565;BME280;3316;44.118;27.258;2023-05-02T00:30:59;101741.09;;;12.58;88.25
6565;BME280;3316;44.118;27.258;2023-05-02T00:33:25;101688.31;;;12.14;89.36
6565;BME280;3316;44.118;27.258;2023-05-02T00:35:50;101752.53;;;12.47;89.38
6565;BME280;3316;44.118;27.258;2023-05-02T00:38:16;101730.53;;;12.33;91.29
6565;BME280;3316;44.118;27.258;2023-05-02T00:40:46;101688.28;;;12.02;92.86
6565;BME280;3316;44.118;27.258;2023-05-02T00:43:13;101747.25;;;12.32;94.71
6565;BME280;3316;44.118;27.258;2023-05-02T00:45:41;101719.09;;;12.21;95.72
6565;BME280;3316;44.118;27.258;2023-05-02T00:48:08;101745.47;;;12.39;95.95
6565;BME280;3316;44.118;27.258;2023-05-02T00:50:36;101748.09;;;12.33;96.78
6565;BME280;3316;44.118;27.258;2023-05-02T00:53:03;101751.66;;;12.36;97.61
6565;BME280;3316;44.118;27.258;2023-05-02T00:55:31;101747.25;;;12.32;98.78
6565;BME280;3316;44.118;27.258;2023-05-02T00:58:02;101746.38;;;12.24;98.51
6565;BME280;3316;44.118;27.258;2023-05-02T01:00:41;101742.84;;;12.30;97.13
6565;BME280;3316;44.118;27.258;2023-05-02T01:03:22;101741.09;;;12.26;96.28
6565;BME280;3316;44.118;27.258;2023-05-02T01:11:56;101733.13;;;11.96;99.65
6565;BME280;3316;44.118;27.258;2023-05-02T01:14:34;101737.50;;;11.94;99.63
6565;BME280;3316;44.118;27.258;2023-05-02T01:17:05;101742.81;;;11.89;99.85
6565;BME280;3316;44.118;27.258;2023-05-02T01:19:41;101738.38;;;11.75;99.74
6565;BME280;3316;44.118;27.258;2023-05-02T01:22:09;101729.50;;;11.57;100.00
6565;BME280;3316;44.118;27.258;2023-05-02T01:27:39;101747.00;;;11.42;100.00
6565;BME280;3316;44.118;27.258;2023-05-02T01:30:07;101747.91;;;11.41;100.00
6565;BME280;3316;44.118;27.258;2023-05-02T01:32:36;101747.00;;;11.45;100.00
6565;BME280;3316;44.118;27.258;2023-05-02T01:35:03;101742.63;;;11.44;100.00
6565;BME280;3316;44.118;27.258;2023-05-02T01:37:31;101750.50;;;11.39;100.00
6565;BME280;3316;44.118;27.258;2023-05-02T01:39:59;101749.59;;;11.28;100.00
6565;BME280;3316;44.118;27.258;2023-05-02T01:42:26;101747.81;;;11.24;100.00
6565;BME280;3316;44.118;27.258;2023-05-02T01:44:53;101747.78;;;11.20;100.00
6565;BME280;3316;44.118;27.258;2023-05-02T01:47:21;101735.44;;;11.08;100.00
6565;BME280;3316;44.118;27.258;2023-05-02T01:49:48;101747.75;;;11.12;100.00
6565;BME280;3316;44.118;27.258;2023-05-02T01:52:14;101750.41;;;11.17;100.00
6565;BME280;3316;44.118;27.258;2023-05-02T01:54:41;101734.63;;;11.17;100.00
6565;BME280;3316;44.118;27.258;2023-05-02T01:57:08;101724.00;;;11.06;100.00
6565;BME280;3316;44.118;27.258;2023-05-02T01:59:36;101734.59;;;11.09;100.00
6565;BME280;3316;44.118;27.258;2023-05-02T02:02:03;101745.16;;;11.17;100.00
6565;BME280;3316;44.118;27.258;2023-05-02T02:04:31;101735.47;;;11.10;100.00
6565;BME280;3316;44.118;27.258;2023-05-02T02:07:05;101742.53;;;11.15;100.00
6565;BME280;3316;44.118;27.258;2023-05-02T02:09:32;101738.97;;;11.12;100.00
6565;BME280;3316;44.118;27.258;2023-05-02T02:12:10;101745.09;;;11.03;100.00
6565;BME280;3316;44.118;27.258;2023-05-02T02:14:38;101732.72;;;10.95;100.00
6565;BME280;3316;44.118;27.258;2023-05-02T02:17:14;101748.56;;;11.01;100.00
6565;BME280;3316;44.118;27.258;2023-05-02T02:19:41;101733.69;;;11.06;100.00
6565;BME280;3316;44.118;27.258;2023-05-02T02:22:07;101751.19;;;11.02;100.00
6565;BME280;3316;44.118;27.258;2023-05-02T02:24:38;101730.00;;;10.77;100.00
6565;BME280;3316;44.118;27.258;2023-05-02T02:27:04;101751.13;;;10.86;100.00
6565;BME280;3316;44.118;27.258;2023-05-02T02:29:30;101740.50;;;10.70;100.00
6565;BME280;3316;44.118;27.258;2023-05-02T02:31:55;101746.56;;;10.65;100.00
6565;BME280;3316;44.118;27.258;2023-05-02T02:34:20;101756.34;;;10.80;100.00
6565;BME280;3316;44.118;27.258;2023-05-02T02:37:34;101751.03;;;10.73;100.00
6565;BME280;3316;44.118;27.258;2023-05-02T02:40:11;101756.22;;;10.63;100.00
6565;BME280;3316;44.118;27.258;2023-05-02T02:48:10;101768.31;;;10.40;100.00
6565;BME280;3316;44.118;27.258;2023-05-02T02:53:32;101733.94;;;10.17;100.00
6565;BME280;3316;44.118;27.258;2023-05-02T02:56:05;101762.31;;;10.54;100.00
6565;BME280;3316;44.118;27.258;2023-05-02T02:58:53;101757.84;;;10.44;100.00
6565;BME280;3316;44.118;27.258;2023-05-02T03:01:20;101769.25;;;10.46;100.00
6565;BME280;3316;44.118;27.258;2023-05-02T03:03:47;101734.84;;;10.22;100.00
6565;BME280;3316;44.118;27.258;2023-05-02T03:06:15;101767.47;;;10.44;100.00
6565;BME280;3316;44.118;27.258;2023-05-02T03:08:42;101738.41;;;10.26;100.00
6565;BME280;3316;44.118;27.258;2023-05-02T03:11:08;101753.38;;;10.36;100.00
6565;BME280;3316;44.118;27.258;2023-05-02T03:13:37;101768.38;;;10.47;100.00
6565;BME280;3316;44.118;27.258;2023-05-02T03:18:46;101782.63;;;10.72;100.00
6565;BME280;3316;44.118;27.258;2023-05-02T03:21:12;101781.91;;;10.94;100.00
6565;BME280;3316;44.118;27.258;2023-05-02T03:23:37;101756.53;;;11.13;100.00
6565;BME280;3316;44.118;27.258;2023-05-02T03:26:02;101747.94;;;11.50;100.00
6565;BME280;3316;44.118;27.258;2023-05-02T03:28:28;101792.03;;;11.98;100.00
6565;BME280;3316;44.118;27.258;2023-05-02T03:30:53;101798.28;;;12.34;100.00
6565;BME280;3316;44.118;27.258;2023-05-02T03:33:19;101797.41;;;12.67;100.00
6565;BME280;3316;44.118;27.258;2023-05-02T03:35:44;101811.47;;;13.05;100.00
6565;BME280;3316;44.118;27.258;2023-05-02T03:38:10;101799.03;;;13.45;97.54
6565;BME280;3316;44.118;27.258;2023-05-02T03:40:35;101791.88;;;13.70;94.61
6565;BME280;3316;44.118;27.258;2023-05-02T03:43:01;101801.38;;;14.10;91.67
6565;BME280;3316;44.118;27.258;2023-05-02T03:45:26;101813.44;;;14.52;90.89
6565;BME280;3316;44.118;27.258;2023-05-02T03:47:51;101817.53;;;14.93;89.66
6565;BME280;3316;44.118;27.258;2023-05-02T03:50:17;101823.22;;;15.44;84.62
6565;BME280;3316;44.118;27.258;2023-05-02T03:52:43;101829.16;;;15.64;82.18
6565;BME280;3316;44.118;27.258;2023-05-02T03:55:09;101826.19;;;15.88;80.17
6565;BME280;3316;44.118;27.258;2023-05-02T03:57:34;101824.53;;;16.42;75.27
6565;BME280;3316;44.118;27.258;2023-05-02T04:00:00;101822.06;;;16.86;70.92
6565;BME280;3316;44.118;27.258;2023-05-02T04:02:25;101833.13;;;17.11;69.67
6565;BME280;3316;44.118;27.258;2023-05-02T04:04:51;101825.50;;;17.84;66.27
6565;BME280;3316;44.118;27.258;2023-05-02T04:07:16;101827.13;;;18.31;63.54
6565;BME280;3316;44.118;27.258;2023-05-02T04:09:45;101843.19;;;18.66;61.64
6565;BME280;3316;44.118;27.258;2023-05-02T04:12:10;101834.34;;;19.33;59.38
6565;BME280;3316;44.118;27.258;2023-05-02T04:14:36;101838.72;;;19.68;57.33
6565;BME280;3316;44.118;27.258;2023-05-02T04:17:01;101839.22;;;20.09;55.50
6565;BME280;3316;44.118;27.258;2023-05-02T04:19:27;101845.50;;;20.91;52.62
6565;BME280;3316;44.118;27.258;2023-05-02T04:21:52;101829.31;;;21.22;51.46
6565;BME280;3316;44.118;27.258;2023-05-02T04:24:18;101831.38;;;21.39;51.08
6565;BME280;3316;44.118;27.258;2023-05-02T04:26:43;101850.63;;;22.21;49.71
6565;BME280;3316;44.118;27.258;2023-05-02T04:29:10;101841.63;;;22.45;49.49
6565;BME280;3316;44.118;27.258;2023-05-02T04:31:35;101847.44;;;22.99;48.30
6565;BME280;3316;44.118;27.258;2023-05-02T04:34:01;101847.81;;;23.52;46.99
6565;BME280;3316;44.118;27.258;2023-05-02T04:36:28;101840.19;;;23.81;46.21
6565;BME280;3316;44.118;27.258;2023-05-02T04:38:53;101845.22;;;23.89;46.25
6565;BME280;3316;44.118;27.258;2023-05-02T04:41:19;101821.81;;;23.91;45.90
6565;BME280;3316;44.118;27.258;2023-05-02T04:43:45;101857.25;;;24.38;45.05
6565;BME280;3316;44.118;27.258;2023-05-02T04:46:11;101852.63;;;24.58;44.80
6565;BME280;3316;44.118;27.258;2023-05-02T04:48:36;101845.00;;;24.49;44.71
6565;BME280;3316;44.118;27.258;2023-05-02T04:51:06;101846.88;;;24.66;44.02
6565;BME280;3316;44.118;27.258;2023-05-02T04:53:32;101852.66;;;25.11;42.98
6565;BME280;3316;44.118;27.258;2023-05-02T04:55:57;101855.56;;;25.75;42.55
6565;BME280;3316;44.118;27.258;2023-05-02T04:58:23;101856.94;;;25.99;41.31
6565;BME280;3316;44.118;27.258;2023-05-02T05:00:48;101849.50;;;26.51;40.11
6565;BME280;3316;44.118;27.258;2023-05-02T05:03:13;101842.63;;;26.77;39.15
6565;BME280;3316;44.118;27.258;2023-05-02T05:05:39;101866.53;;;27.14;38.33
6565;BME280;3316;44.118;27.258;2023-05-02T05:08:05;101873.41;;;27.49;37.41
6565;BME280;3316;44.118;27.258;2023-05-02T05:10:30;101867.81;;;27.22;36.82
6565;BME280;3316;44.118;27.258;2023-05-02T05:12:56;101866.66;;;27.70;35.29
6565;BME280;3316;44.118;27.258;2023-05-02T05:15:21;101876.19;;;28.20;34.60
6565;BME280;3316;44.118;27.258;2023-05-02T05:17:48;101876.09;;;28.76;32.17
6565;BME280;3316;44.118;27.258;2023-05-02T05:20:13;101871.19;;;29.22;32.24
6565;BME280;3316;44.118;27.258;2023-05-02T05:22:39;101875.88;;;29.06;34.23
6565;BME280;3316;44.118;27.258;2023-05-02T05:25:06;101883.50;;;29.65;35.60
6565;BME280;3316;44.118;27.258;2023-05-02T05:27:33;101873.13;;;29.84;35.37
6565;BME280;3316;44.118;27.258;2023-05-02T05:29:58;101884.84;;;29.84;35.05
6565;BME280;3316;44.118;27.258;2023-05-02T05:32:24;101882.88;;;29.86;34.64
6565;BME280;3316;44.118;27.258;2023-05-02T05:34:53;101896.34;;;30.13;34.22
6565;BME280;3316;44.118;27.258;2023-05-02T05:37:19;101898.81;;;30.16;33.96
6565;BME280;3316;44.118;27.258;2023-05-02T05:39:45;101896.09;;;30.16;34.15
6565;BME280;3316;44.118;27.258;2023-05-02T05:42:11;101898.06;;;30.14;33.85
6565;BME280;3316;44.118;27.258;2023-05-02T05:44:37;101891.69;;;30.15;33.90
6565;BME280;3316;44.118;27.258;2023-05-02T05:47:03;101895.91;;;30.19;34.03
6565;BME280;3316;44.118;27.258;2023-05-02T05:49:29;101897.53;;;30.09;32.10
6565;BME280;3316;44.118;27.258;2023-05-02T05:51:54;101907.19;;;30.01;30.31
6565;BME280;3316;44.118;27.258;2023-05-02T05:54:20;101908.97;;;28.84;29.16
6565;BME280;3316;44.118;27.258;2023-05-02T05:56:45;101904.50;;;28.28;30.01
6565;BME280;3316;44.118;27.258;2023-05-02T05:59:11;101901.38;;;27.34;30.95
6565;BME280;3316;44.118;27.258;2023-05-02T06:01:37;101879.84;;;26.87;31.86
6565;BME280;3316;44.118;27.258;2023-05-02T06:04:03;101901.13;;;27.07;31.78
6565;BME280;3316;44.118;27.258;2023-05-02T06:06:29;101900.47;;;26.57;32.97
6565;BME280;3316;44.118;27.258;2023-05-02T06:08:56;101907.13;;;25.52;34.90
6565;BME280;3316;44.118;27.258;2023-05-02T06:11:21;101873.63;;;24.88;35.89
6565;BME280;3316;44.118;27.258;2023-05-02T06:13:50;101864.41;;;23.80;36.79
6565;BME280;3316;44.118;27.258;2023-05-02T06:16:15;101904.03;;;23.36;38.06
6565;BME280;3316;44.118;27.258;2023-05-02T06:18:42;101911.06;;;23.39;38.91
6565;BME280;3316;44.118;27.258;2023-05-02T06:21:08;101898.78;;;23.33;40.33
6565;BME280;3316;44.118;27.258;2023-05-02T06:23:33;101899.09;;;23.04;40.81
6565;BME280;3316;44.118;27.258;2023-05-02T06:26:00;101909.00;;;22.82;41.01
6565;BME280;3316;44.118;27.258;2023-05-02T06:28:26;101897.72;;;22.72;42.21
6565;BME280;3316;44.118;27.258;2023-05-02T06:31:02;101903.00;;;22.75;42.41
6565;BME280;3316;44.118;27.258;2023-05-02T06:33:29;101898.88;;;22.67;42.72
6565;BME280;3316;44.118;27.258;2023-05-02T06:35:54;101900.63;;;22.68;43.27
6565;BME280;3316;44.118;27.258;2023-05-02T06:38:20;101903.06;;;22.74;43.88
6565;BME280;3316;44.118;27.258;2023-05-02T06:40:46;101897.56;;;22.98;44.51
6565;BME280;3316;44.118;27.258;2023-05-02T06:43:12;101892.59;;;23.10;44.26
6565;BME280;3316;44.118;27.258;2023-05-02T06:45:39;101894.91;;;23.19;43.87
6565;BME280;3316;44.118;27.258;2023-05-02T06:48:05;101909.19;;;22.99;43.43
6565;BME280;3316;44.118;27.258;2023-05-02T06:50:30;101901.59;;;23.09;43.06
6565;BME280;3316;44.118;27.258;2023-05-02T06:52:56;101901.28;;;23.16;42.35
6565;BME280;3316;44.118;27.258;2023-05-02T06:55:21;101907.84;;;23.09;42.17
6565;BME280;3316;44.118;27.258;2023-05-02T06:57:50;101914.41;;;23.02;42.21
6565;BME280;3316;44.118;27.258;2023-05-02T07:00:17;101902.00;;;22.99;41.98
6565;BME280;3316;44.118;27.258;2023-05-02T07:02:44;101896.56;;;23.21;41.42
6565;BME280;3316;44.118;27.258;2023-05-02T07:05:09;101912.56;;;23.46;41.37
6565;BME280;3316;44.118;27.258;2023-05-02T07:07:35;101907.13;;;23.67;40.93
6565;BME280;3316;44.118;27.258;2023-05-02T07:10:02;101911.47;;;23.70;41.15
6565;BME280;3316;44.118;27.258;2023-05-02T07:12:27;101914.91;;;23.73;41.16
6565;BME280;3316;44.118;27.258;2023-05-02T07:14:53;101914.13;;;23.71;41.02
6565;BME280;3316;44.118;27.258;2023-05-02T07:17:18;101918.25;;;23.58;40.37
6565;BME280;3316;44.118;27.258;2023-05-02T07:19:44;101918.81;;;23.46;40.57
6565;BME280;3316;44.118;27.258;2023-05-02T07:22:09;101901.56;;;23.30;41.35
6565;BME280;3316;44.118;27.258;2023-05-02T07:24:38;101914.69;;;23.38;41.46
6565;BME280;3316;44.118;27.258;2023-05-02T07:27:04;101918.34;;;23.57;41.55
6565;BME280;3316;44.118;27.258;2023-05-02T07:29:29;101921.63;;;23.63;41.08
6565;BME280;3316;44.118;27.258;2023-05-02T07:31:55;101927.81;;;23.65;41.35
6565;BME280;3316;44.118;27.258;2023-05-02T07:34:20;101919.25;;;23.76;41.42
6565;BME280;3316;44.118;27.258;2023-05-02T07:36:46;101928.34;;;23.73;41.39
6565;BME280;3316;44.118;27.258;2023-05-02T07:39:11;101925.59;;;23.55;41.53
6565;BME280;3316;44.118;27.258;2023-05-02T07:41:37;101902.16;;;23.38;42.00
6565;BME280;3316;44.118;27.258;2023-05-02T07:44:02;101921.41;;;23.68;42.20
6565;BME280;3316;44.118;27.258;2023-05-02T07:46:28;101908.78;;;23.90;42.38
6565;BME280;3316;44.118;27.258;2023-05-02T07:48:53;101914.97;;;24.31;41.04
6565;BME280;3316;44.118;27.258;2023-05-02T07:51:19;101915.47;;;24.39;40.98
6565;BME280;3316;44.118;27.258;2023-05-02T07:53:48;101920.91;;;24.56;41.23
6565;BME280;3316;44.118;27.258;2023-05-02T07:56:14;101909.56;;;24.68;40.32
6565;BME280;3316;44.118;27.258;2023-05-02T07:58:40;101912.63;;;24.79;39.64
6565;BME280;3316;44.118;27.258;2023-05-02T08:01:05;101921.72;;;24.95;39.89
6565;BME280;3316;44.118;27.258;2023-05-02T08:03:30;101917.44;;;24.91;38.84
6565;BME280;3316;44.118;27.258;2023-05-02T08:05:56;101916.50;;;25.09;38.86
6565;BME280;3316;44.118;27.258;2023-05-02T08:08:22;101915.41;;;24.96;38.61
6565;BME280;3316;44.118;27.258;2023-05-02T08:10:47;101912.25;;;25.22;37.90
6565;BME280;3316;44.118;27.258;2023-05-02T08:13:15;101911.09;;;24.92;37.55
6565;BME280;3316;44.118;27.258;2023-05-02T08:15:41;101907.31;;;24.96;37.44
6565;BME280;3316;44.118;27.258;2023-05-02T08:18:06;101912.41;;;25.02;37.31
6565;BME280;3316;44.118;27.258;2023-05-02T08:20:32;101917.13;;;25.50;36.39
6565;BME280;3316;44.118;27.258;2023-05-02T08:22:57;101905.22;;;25.37;35.91
6565;BME280;3316;44.118;27.258;2023-05-02T08:25:22;101909.44;;;24.71;36.74
6565;BME280;3316;44.118;27.258;2023-05-02T08:27:48;101909.59;;;24.87;37.63
6565;BME280;3316;44.118;27.258;2023-05-02T08:30:13;101913.00;;;24.34;36.89
6565;BME280;3316;44.118;27.258;2023-05-02T08:32:39;101906.94;;;24.85;37.14
6565;BME280;3316;44.118;27.258;2023-05-02T08:35:05;101909.09;;;25.31;36.49
6565;BME280;3316;44.118;27.258;2023-05-02T08:37:30;101901.25;;;25.10;34.08
6565;BME280;3316;44.118;27.258;2023-05-02T08:39:56;101893.66;;;24.45;32.97
6565;BME280;3316;44.118;27.258;2023-05-02T08:42:22;101899.81;;;24.65;33.76
6565;BME280;3316;44.118;27.258;2023-05-02T08:44:48;101919.50;;;25.03;33.40
6565;BME280;3316;44.118;27.258;2023-05-02T08:47:14;101902.44;;;25.21;33.13
6565;BME280;3316;44.118;27.258;2023-05-02T08:49:41;101895.38;;;25.19;33.67
6565;BME280;3316;44.118;27.258;2023-05-02T08:52:08;101891.00;;;25.16;35.94
6565;BME280;3316;44.118;27.258;2023-05-02T08:54:36;101893.72;;;25.33;36.32
6565;BME280;3316;44.118;27.258;2023-05-02T08:57:03;101897.97;;;25.20;36.62
6565;BME280;3316;44.118;27.258;2023-05-02T08:59:28;101891.56;;;25.06;35.27
6565;BME280;3316;44.118;27.258;2023-05-02T09:01:58;101892.34;;;25.08;35.99
6565;BME280;3316;44.118;27.258;2023-05-02T09:04:30;101868.28;;;25.39;35.99
6565;BME280;3316;44.118;27.258;2023-05-02T09:06:58;101901.81;;;25.68;35.08
6565;BME280;3316;44.118;27.258;2023-05-02T09:09:23;101892.19;;;25.11;35.58
6565;BME280;3316;44.118;27.258;2023-05-02T09:11:50;101880.50;;;25.46;34.74
6565;BME280;3316;44.118;27.258;2023-05-02T09:14:16;101896.59;;;25.65;33.33
6565;BME280;3316;44.118;27.258;2023-05-02T09:16:43;101886.69;;;25.48;34.11
6565;BME280;3316;44.118;27.258;2023-05-02T09:19:09;101899.06;;;24.99;33.69
6565;BME280;3316;44.118;27.258;2023-05-02T09:21:36;101892.19;;;24.56;33.68
6565;BME280;3316;44.118;27.258;2023-05-02T09:24:16;101877.56;;;24.62;33.55
6565;BME280;3316;44.118;27.258;2023-05-02T09:27:05;101880.00;;;24.12;34.41
6565;BME280;3316;44.118;27.258;2023-05-02T09:29:31;101882.03;;;24.63;34.69
6565;BME280;3316;44.118;27.258;2023-05-02T09:32:04;101841.16;;;24.55;34.06
6565;BME280;3316;44.118;27.258;2023-05-02T09:34:30;101882.31;;;24.20;33.93
6565;BME280;3316;44.118;27.258;2023-05-02T09:36:56;101885.88;;;24.57;33.90
6565;BME280;3316;44.118;27.258;2023-05-02T09:39:24;101889.38;;;24.59;33.83
6565;BME280;3316;44.118;27.258;2023-05-02T09:41:49;101872.59;;;24.36;34.28
6565;BME280;3316;44.118;27.258;2023-05-02T09:44:20;101874.66;;;24.66;34.47
6565;BME280;3316;44.118;27.258;2023-05-02T09:46:51;101874.41;;;24.73;34.94
6565;BME280;3316;44.118;27.258;2023-05-02T09:49:17;101872.28;;;24.60;35.05
6565;BME280;3316;44.118;27.258;2023-05-02T09:51:44;101876.56;;;24.27;34.31
6565;BME280;3316;44.118;27.258;2023-05-02T09:54:11;101883.28;;;23.99;35.47
6565;BME280;3316;44.118;27.258;2023-05-02T09:56:55;101864.00;;;24.28;35.82
6565;BME280;3316;44.118;27.258;2023-05-02T09:59:22;101877.00;;;24.37;35.79
6565;BME280;3316;44.118;27.258;2023-05-02T10:02:04;101867.34;;;24.33;35.75
6565;BME280;3316;44.118;27.258;2023-05-02T10:04:31;101870.69;;;24.38;35.12
6565;BME280;3316;44.118;27.258;2023-05-02T10:06:57;101859.44;;;24.30;35.76
6565;BME280;3316;44.118;27.258;2023-05-02T10:09:25;101853.13;;;24.66;35.35
6565;BME280;3316;44.118;27.258;2023-05-02T10:11:53;101858.59;;;25.01;34.70
6565;BME280;3316;44.118;27.258;2023-05-02T10:14:20;101865.78;;;24.83;34.93
6565;BME280;3316;44.118;27.258;2023-05-02T10:17:04;101851.31;;;24.48;34.40
6565;BME280;3316;44.118;27.258;2023-05-02T10:19:38;101860.88;;;24.55;34.59
6565;BME280;3316;44.118;27.258;2023-05-02T10:22:06;101849.38;;;24.33;34.27
6565;BME280;3316;44.118;27.258;2023-05-02T10:24:33;101852.00;;;24.53;34.50
6565;BME280;3316;44.118;27.258;2023-05-02T10:26:59;101860.56;;;24.43;34.45
6565;BME280;3316;44.118;27.258;2023-05-02T10:29:28;101860.06;;;24.35;35.07
6565;BME280;3316;44.118;27.258;2023-05-02T10:31:54;101851.78;;;24.39;34.72
6565;BME280;3316;44.118;27.258;2023-05-02T10:34:21;101826.97;;;24.51;34.67
6565;BME280;3316;44.118;27.258;2023-05-02T10:36:47;101852.66;;;24.77;34.47
6565;BME280;3316;44.118;27.258;2023-05-02T10:39:12;101853.63;;;24.56;34.42
6565;BME280;3316;44.118;27.258;2023-05-02T10:41:39;101843.97;;;24.70;34.02
6565;BME280;3316;44.118;27.258;2023-05-02T10:44:05;101841.19;;;24.18;33.80
6565;BME280;3316;44.118;27.258;2023-05-02T10:51:30;101837.88;;;23.93;34.13
6565;BME280;3316;44.118;27.258;2023-05-02T10:59:32;101828.81;;;24.14;33.97
6565;BME280;3316;44.118;27.258;2023-05-02T11:01:58;101844.66;;;24.20;33.69
6565;BME280;3316;44.118;27.258;2023-05-02T11:04:24;101841.69;;;24.26;33.39
6565;BME280;3316;44.118;27.258;2023-05-02T11:11:47;101829.13;;;23.69;34.26
6565;BME280;3316;44.118;27.258;2023-05-02T11:19:29;101810.41;;;24.23;33.67
6565;BME280;3316;44.118;27.258;2023-05-02T11:24:51;101809.84;;;24.17;33.58
6565;BME280;3316;44.118;27.258;2023-05-02T11:32:21;101798.34;;;24.32;32.78
6565;BME280;3316;44.118;27.258;2023-05-02T11:34:50;101813.66;;;24.48;32.52
6565;BME280;3316;44.118;27.258;2023-05-02T11:37:18;101788.41;;;24.15;33.11
6565;BME280;3316;44.118;27.258;2023-05-02T11:39:44;101816.38;;;24.11;32.13
6565;BME280;3316;44.118;27.258;2023-05-02T11:42:32;101828.56;;;24.00;32.75
6565;BME280;3316;44.118;27.258;2023-05-02T11:44:59;101819.00;;;24.31;32.69
6565;BME280;3316;44.118;27.258;2023-05-02T11:47:25;101809.00;;;24.52;32.95
6565;BME280;3316;44.118;27.258;2023-05-02T11:49:53;101773.81;;;24.02;33.94
6565;BME280;3316;44.118;27.258;2023-05-02T11:52:19;101808.19;;;24.14;33.12
6565;BME280;3316;44.118;27.258;2023-05-02T11:54:45;101803.59;;;24.16;33.52
6565;BME280;3316;44.118;27.258;2023-05-02T11:57:11;101802.47;;;24.39;33.20
6565;BME280;3316;44.118;27.258;2023-05-02T11:59:54;101796.56;;;24.49;32.89
6565;BME280;3316;44.118;27.258;2023-05-02T12:02:37;101805.47;;;24.33;33.32
6565;BME280;3316;44.118;27.258;2023-05-02T12:05:03;101806.97;;;24.38;33.40
6565;BME280;3316;44.118;27.258;2023-05-02T12:07:39;101794.91;;;24.47;33.12
6565;BME280;3316;44.118;27.258;2023-05-02T12:10:09;101814.03;;;24.41;32.76
6565;BME280;3316;44.118;27.258;2023-05-02T12:12:36;101803.66;;;24.33;33.24
6565;BME280;3316;44.118;27.258;2023-05-02T12:15:06;101801.94;;;23.94;33.18
6565;BME280;3316;44.118;27.258;2023-05-02T12:17:35;101801.41;;;23.87;33.58
6565;BME280;3316;44.118;27.258;2023-05-02T12:20:06;101797.19;;;23.81;34.24
6565;BME280;3316;44.118;27.258;2023-05-02T12:22:32;101795.53;;;23.59;34.33
6565;BME280;3316;44.118;27.258;2023-05-02T12:24:57;101786.44;;;23.81;34.53
6565;BME280;3316;44.118;27.258;2023-05-02T12:27:23;101757.28;;;23.91;33.96
6565;BME280;3316;44.118;27.258;2023-05-02T12:29:49;101786.88;;;24.10;34.01
6565;BME280;3316;44.118;27.258;2023-05-02T12:32:29;101784.06;;;24.13;34.24
6565;BME280;3316;44.118;27.258;2023-05-02T12:34:55;101779.00;;;23.86;34.21
6565;BME280;3316;44.118;27.258;2023-05-02T12:37:24;101775.88;;;23.96;34.26
6565;BME280;3316;44.118;27.258;2023-05-02T12:39:50;101760.75;;;23.74;34.68
6565;BME280;3316;44.118;27.258;2023-05-02T12:42:19;101768.88;;;23.92;34.66
6565;BME280;3316;44.118;27.258;2023-05-02T12:44:46;101759.00;;;24.29;34.20
6565;BME280;3316;44.118;27.258;2023-05-02T12:47:15;101762.31;;;24.53;34.41
6565;BME280;3316;44.118;27.258;2023-05-02T12:50:07;101753.00;;;24.24;34.56
6565;BME280;3316;44.118;27.258;2023-05-02T12:52:49;101754.69;;;24.08;34.70
6565;BME280;3316;44.118;27.258;2023-05-02T12:55:23;101766.66;;;23.82;35.06
6565;BME280;3316;44.118;27.258;2023-05-02T12:57:49;101749.81;;;23.79;35.27
6565;BME280;3316;44.118;27.258;2023-05-02T13:00:18;101742.25;;;24.06;34.88
6565;BME280;3316;44.118;27.258;2023-05-02T13:02:43;101759.09;;;24.28;35.31
6565;BME280;3316;44.118;27.258;2023-05-02T13:05:18;101757.22;;;24.11;35.93
6565;BME280;3316;44.118;27.258;2023-05-02T13:07:44;101752.47;;;24.35;35.92
6565;BME280;3316;44.118;27.258;2023-05-02T13:10:10;101757.28;;;24.28;35.80
6565;BME280;3316;44.118;27.258;2023-05-02T13:12:36;101757.41;;;24.61;35.64
6565;BME280;3316;44.118;27.258;2023-05-02T13:15:07;101745.19;;;24.73;36.03
6565;BME280;3316;44.118;27.258;2023-05-02T13:17:33;101758.03;;;24.66;36.25
6565;BME280;3316;44.118;27.258;2023-05-02T13:19:59;101757.75;;;24.36;36.69
6565;BME280;3316;44.118;27.258;2023-05-02T13:22:26;101757.34;;;24.27;37.58
6565;BME280;3316;44.118;27.258;2023-05-02T13:24:51;101759.28;;;24.06;39.17
6565;BME280;3316;44.118;27.258;2023-05-02T13:27:17;101743.47;;;23.99;39.64
6565;BME280;3316;44.118;27.258;2023-05-02T13:29:47;101737.97;;;23.83;39.86
6565;BME280;3316;44.118;27.258;2023-05-02T13:32:13;101736.13;;;23.83;41.79
6565;BME280;3316;44.118;27.258;2023-05-02T13:34:38;101758.91;;;23.56;43.79
6565;BME280;3316;44.118;27.258;2023-05-02T13:37:04;101755.06;;;23.43;44.22
6565;BME280;3316;44.118;27.258;2023-05-02T13:39:29;101751.28;;;23.47;44.29
6565;BME280;3316;44.118;27.258;2023-05-02T13:41:54;101742.88;;;23.36;43.83
6565;BME280;3316;44.118;27.258;2023-05-02T13:44:20;101756.03;;;23.42;44.73
6565;BME280;3316;44.118;27.258;2023-05-02T13:46:45;101748.78;;;23.63;44.35
6565;BME280;3316;44.118;27.258;2023-05-02T13:49:12;101720.50;;;23.54;44.25